Time;durP1;ratioP1;P1;durP2;ratioP2;P2;SDS_P1;SDS_P2;PMS_P1;PMS_P2;Temp;Humidity;BMP_temperature;BMP_pressure;BME280_temperature;BME280_humidity;BME280_pressure;Samples;Min_cycle;Max_cycle;Signal;HPM_P1;HPM_P2
2022/10/05 00:00:20;;;;;;;6.50;3.95;;;;;;;;;;5033543;28;20026;-65
2022/10/05 00:02:48;;;;;;;4.85;3.50;;;;;;;;;;5035846;28;20049;-64
2022/10/05 00:05:19;;;;;;;6.10;3.65;;;;;;;;;;5035436;28;20038;-64
2022/10/05 00:07:44;;;;;;;5.32;3.67;;;;;;;;;;5035831;28;20488;-66
2022/10/05 00:10:15;;;;;;;6.25;3.20;;;;;;;;;;5035756;28;20053;-66
2022/10/05 00:12:44;;;;;;;5.80;3.70;;;;;;;;;;5035643;28;20014;-65
2022/10/05 00:15:12;;;;;;;4.65;3.20;;;;;;;;;;5035369;28;20026;-64
2022/10/05 00:17:37;;;;;;;5.03;3.50;;;;;;;;;;5035462;28;20377;-65
2022/10/05 00:20:22;;;;;;;4.82;3.42;;;;;;;;;;5035446;28;20079;-65
2022/10/05 00:22:50;;;;;;;5.03;3.50;;;;;;;;;;5035096;28;20084;-65
2022/10/05 00:25:19;;;;;;;4.82;3.25;;;;;;;;;;5035365;28;20029;-65
2022/10/05 00:27:58;;;;;;;5.47;3.90;;;;;;;;;;5035014;28;20067;-66
2022/10/05 00:30:30;;;;;;;5.93;3.67;;;;;;;;;;5035266;28;20021;-65
2022/10/05 00:32:56;;;;;;;3.80;3.30;;;;;;;;;;5034983;28;20029;-65
2022/10/05 00:35:21;;;;;;;5.65;3.63;;;;;;;;;;5034793;28;20029;-66
2022/10/05 00:37:53;;;;;;;7.97;3.78;;;;;;;;;;5034867;28;20024;-65
2022/10/05 00:40:27;;;;;;;4.18;3.25;;;;;;;;;;5033531;28;20112;-66
2022/10/05 00:43:22;;;;;;;5.82;3.72;;;;;;;;;;5034622;28;20401;-66
2022/10/05 00:46:16;;;;;;;4.00;3.30;;;;;;;;;;5033422;28;20091;-65
2022/10/05 00:48:47;;;;;;;4.07;3.35;;;;;;;;;;5034479;28;20051;-66
2022/10/05 00:51:24;;;;;;;4.57;3.53;;;;;;;;;;5034600;28;20026;-66
2022/10/05 00:54:17;;;;;;;4.68;3.47;;;;;;;;;;5034776;28;20416;-65
2022/10/05 00:56:57;;;;;;;6.50;3.60;;;;;;;;;;5034459;28;20022;-65
2022/10/05 00:59:38;;;;;;;5.43;3.88;;;;;;;;;;5034525;28;20029;-65
2022/10/05 01:02:12;;;;;;;5.68;3.10;;;;;;;;;;5034444;28;20033;-64
2022/10/05 01:04:37;;;;;;;4.68;3.40;;;;;;;;;;5034648;28;20025;-66
2022/10/05 01:07:15;;;;;;;3.70;3.30;;;;;;;;;;5034276;28;20026;-65
2022/10/05 01:10:10;;;;;;;5.25;3.78;;;;;;;;;;5034311;28;20026;-64
2022/10/05 01:12:50;;;;;;;4.90;3.42;;;;;;;;;;5033579;28;20033;-65
2022/10/05 01:15:34;;;;;;;;;;;;;;;;;;5034548;28;20028;-65
2022/10/05 01:18:03;;;;;;;4.45;3.30;;;;;;;;;;5034151;28;19966;-65
2022/10/05 01:20:43;;;;;;;4.10;3.53;;;;;;;;;;5034427;28;20029;-67
2022/10/05 01:23:37;;;;;;;3.65;3.30;;;;;;;;;;5034439;28;20022;-65
2022/10/05 01:26:05;;;;;;;4.28;3.40;;;;;;;;;;5035809;28;20033;-65
2022/10/05 01:28:36;;;;;;;4.40;3.42;;;;;;;;;;5034164;28;20034;-65
2022/10/05 01:31:22;;;;;;;3.80;3.40;;;;;;;;;;5034223;28;20059;-65
2022/10/05 01:34:05;;;;;;;4.55;3.65;;;;;;;;;;5033656;28;20029;-65
2022/10/05 01:36:45;;;;;;;7.40;3.85;;;;;;;;;;5034159;28;20029;-64
2022/10/05 01:39:33;;;;;;;4.32;3.70;;;;;;;;;;5033803;28;20112;-64
2022/10/05 01:42:30;;;;;;;4.70;3.25;;;;;;;;;;5033651;28;20046;-64
2022/10/05 01:45:21;;;;;;;4.40;3.50;;;;;;;;;;5033809;28;20061;-64
2022/10/05 01:47:50;;;;;;;5.00;3.63;;;;;;;;;;5033904;28;20038;-65
2022/10/05 01:50:35;;;;;;;4.03;3.63;;;;;;;;;;5033455;28;20029;-66
2022/10/05 01:53:01;;;;;;;5.32;3.28;;;;;;;;;;5033851;28;20033;-64
2022/10/05 01:55:51;;;;;;;5.53;3.60;;;;;;;;;;5033387;28;20025;-64
2022/10/05 01:58:33;;;;;;;4.10;3.28;;;;;;;;;;5033381;28;20026;-66
2022/10/05 02:01:06;;;;;;;5.10;3.30;;;;;;;;;;5033349;28;20025;-66
2022/10/05 02:03:44;;;;;;;4.25;3.20;;;;;;;;;;5033326;28;20034;-65
2022/10/05 02:06:18;;;;;;;3.15;2.80;;;;;;;;;;5033335;28;20053;-65
2022/10/05 02:08:49;;;;;;;4.03;3.00;;;;;;;;;;5033418;28;20033;-65
2022/10/05 02:11:15;;;;;;;4.53;3.47;;;;;;;;;;5033178;28;20029;-66
2022/10/05 02:13:49;;;;;;;3.42;3.13;;;;;;;;;;5033070;28;20075;-66
2022/10/05 02:16:29;;;;;;;4.50;3.50;;;;;;;;;;5033029;28;20032;-66
2022/10/05 02:19:00;;;;;;;;;;;;;;;;;;5033355;28;20465;-65
2022/10/05 02:21:27;;;;;;;4.20;3.35;;;;;;;;;;5031640;28;19913;-66
2022/10/05 02:23:57;;;;;;;4.80;3.25;;;;;;;;;;5033037;28;20040;-66
2022/10/05 02:26:24;;;;;;;;;;;;;;;;;;5033597;28;20025;-66
2022/10/05 02:28:57;;;;;;;3.75;3.35;;;;;;;;;;5033207;28;20281;-65
2022/10/05 02:31:39;;;;;;;4.90;3.10;;;;;;;;;;5032806;28;20021;-65
2022/10/05 02:34:23;;;;;;;4.55;3.10;;;;;;;;;;5033151;28;20104;-67
2022/10/05 02:37:30;;;;;;;6.82;3.30;;;;;;;;;;5032717;28;20558;-66
2022/10/05 02:40:22;;;;;;;3.83;3.42;;;;;;;;;;5032600;28;20045;-67
2022/10/05 02:42:57;;;;;;;3.70;3.10;;;;;;;;;;5032037;28;20048;-66
2022/10/05 02:46:01;;;;;;;3.20;2.90;;;;;;;;;;5065003;28;20026;-65
2022/10/05 02:48:41;;;;;;;3.40;3.10;;;;;;;;;;5032536;28;20382;-65
2022/10/05 02:51:26;;;;;;;;;;;;;;;;;;5033048;28;20037;-65
2022/10/05 02:53:58;;;;;;;3.92;3.20;;;;;;;;;;5032369;28;19920;-64
2022/10/05 02:56:45;;;;;;;3.80;2.83;;;;;;;;;;5032472;28;20044;-65
2022/10/05 02:59:14;;;;;;;5.22;3.38;;;;;;;;;;5032749;28;20111;-67
2022/10/05 03:01:50;;;;;;;4.17;3.30;;;;;;;;;;5032498;28;20025;-65
2022/10/05 03:04:37;;;;;;;4.03;3.00;;;;;;;;;;5032544;28;20112;-65
2022/10/05 03:07:11;;;;;;;3.85;2.80;;;;;;;;;;5032365;28;20045;-65
2022/10/05 03:09:51;;;;;;;3.80;3.30;;;;;;;;;;5032298;28;20116;-65
2022/10/05 03:12:29;;;;;;;3.47;3.15;;;;;;;;;;5032534;28;20021;-68
2022/10/05 03:15:02;;;;;;;3.70;3.10;;;;;;;;;;5032337;28;20026;-65
2022/10/05 03:17:37;;;;;;;3.70;3.00;;;;;;;;;;5032215;28;20032;-64
2022/10/05 03:20:30;;;;;;;3.35;3.05;;;;;;;;;;5032603;28;20030;-65
2022/10/05 03:23:01;;;;;;;3.90;2.97;;;;;;;;;;5032549;28;20025;-65
2022/10/05 03:25:33;;;;;;;3.60;2.80;;;;;;;;;;5032114;28;20032;-65
2022/10/05 03:28:06;;;;;;;4.88;3.10;;;;;;;;;;5032113;28;20398;-66
2022/10/05 03:31:02;;;;;;;5.38;3.30;;;;;;;;;;5032098;28;20465;-65
2022/10/05 03:33:47;;;;;;;8.63;3.08;;;;;;;;;;5031700;28;20042;-65
2022/10/05 03:36:24;;;;;;;4.30;3.00;;;;;;;;;;5035484;28;20029;-66
2022/10/05 03:38:49;;;;;;;3.25;2.70;;;;;;;;;;5036031;28;20022;-65
2022/10/05 03:41:33;;;;;;;4.35;2.83;;;;;;;;;;5035943;28;20045;-66
2022/10/05 03:44:17;;;;;;;5.03;3.00;;;;;;;;;;5035858;28;20069;-66
2022/10/05 03:46:45;;;;;;;3.55;2.63;;;;;;;;;;5035859;28;20025;-65
2022/10/05 03:49:29;;;;;;;5.22;2.85;;;;;;;;;;5035780;28;20104;-65
2022/10/05 03:52:02;;;;;;;4.13;3.13;;;;;;;;;;5035855;28;20032;-66
2022/10/05 03:54:34;;;;;;;3.05;2.65;;;;;;;;;;5035685;28;20115;-65
2022/10/05 03:57:15;;;;;;;3.40;2.85;;;;;;;;;;5036031;28;20091;-65
2022/10/05 03:59:45;;;;;;;3.08;2.60;;;;;;;;;;5034396;28;20021;-65
2022/10/05 04:02:29;;;;;;;2.67;2.47;;;;;;;;;;5035897;28;20127;-66
2022/10/05 04:05:03;;;;;;;4.00;2.83;;;;;;;;;;5035415;28;20412;-65
2022/10/05 04:07:35;;;;;;;4.90;3.00;;;;;;;;;;5035549;28;20025;-65
2022/10/05 04:10:04;;;;;;;3.35;2.80;;;;;;;;;;5035746;28;20052;-65
2022/10/05 04:12:34;;;;;;;5.40;3.10;;;;;;;;;;5035418;28;20503;-66
2022/10/05 04:15:04;;;;;;;5.05;3.10;;;;;;;;;;5035336;28;20104;-66
2022/10/05 04:17:41;;;;;;;;;;;;;;;;;;5035695;28;20029;-66
2022/10/05 04:20:16;;;;;;;3.22;2.72;;;;;;;;;;5035140;28;20000;-66
2022/10/05 04:23:00;;;;;;;4.05;2.90;;;;;;;;;;5035527;28;20061;-66
2022/10/05 04:25:31;;;;;;;3.67;2.80;;;;;;;;;;5035081;28;20025;-66
2022/10/05 04:28:10;;;;;;;3.55;3.03;;;;;;;;;;5035168;28;20025;-67
2022/10/05 04:30:40;;;;;;;4.03;3.13;;;;;;;;;;5035357;28;20025;-70
2022/10/05 04:33:11;;;;;;;2.83;2.53;;;;;;;;;;5035059;28;20025;-66
2022/10/05 04:35:39;;;;;;;3.15;2.75;;;;;;;;;;5034976;28;20429;-66
2022/10/05 04:38:30;;;;;;;4.78;2.95;;;;;;;;;;5035044;28;20033;-66
2022/10/05 04:41:20;;;;;;;;;;;;;;;;;;5035175;28;20037;-66
2022/10/05 04:44:07;;;;;;;4.85;2.72;;;;;;;;;;5034709;28;19913;-68
2022/10/05 04:47:02;;;;;;;3.40;2.70;;;;;;;;;;5033929;28;20032;-67
2022/10/05 04:49:54;;;;;;;4.88;2.80;;;;;;;;;;5034808;28;20472;-65
2022/10/05 04:52:46;;;;;;;4.15;2.67;;;;;;;;;;5034790;28;20036;-65
2022/10/05 04:55:46;;;;;;;3.50;2.47;;;;;;;;;;5034555;28;20521;-69
2022/10/05 04:58:23;;;;;;;2.97;2.70;;;;;;;;;;5033045;28;20081;-65
2022/10/05 05:01:03;;;;;;;2.80;2.60;;;;;;;;;;5034799;28;20076;-66
2022/10/05 05:03:35;;;;;;;;;;;;;;;;;;5033623;28;20033;-66
2022/10/05 05:06:06;;;;;;;3.08;2.70;;;;;;;;;;5034319;28;19920;-66
2022/10/05 05:08:40;;;;;;;2.75;2.42;;;;;;;;;;5033275;28;20421;-70
2022/10/05 05:11:18;;;;;;;3.65;2.28;;;;;;;;;;5034383;28;20112;-65
2022/10/05 05:14:16;;;;;;;3.00;2.60;;;;;;;;;;5034590;28;20034;-65
2022/10/05 05:16:44;;;;;;;4.35;2.83;;;;;;;;;;5032738;28;20132;-67
2022/10/05 05:19:16;;;;;;;3.17;2.88;;;;;;;;;;5034186;28;20029;-65
2022/10/05 05:21:47;;;;;;;3.33;2.70;;;;;;;;;;5034296;28;20021;-65
2022/10/05 05:24:37;;;;;;;2.67;2.42;;;;;;;;;;5034175;28;20026;-65
2022/10/05 05:27:28;;;;;;;3.03;2.78;;;;;;;;;;5033940;28;20032;-65
2022/10/05 05:30:05;;;;;;;3.60;3.10;;;;;;;;;;5034123;28;20041;-66
2022/10/05 05:32:39;;;;;;;2.90;2.45;;;;;;;;;;5033835;28;20104;-66
2022/10/05 05:35:19;;;;;;;3.42;2.67;;;;;;;;;;5033902;28;20175;-65
2022/10/05 05:37:51;;;;;;;3.40;2.38;;;;;;;;;;5034375;28;20053;-66
2022/10/05 05:40:30;;;;;;;3.60;2.83;;;;;;;;;;5033662;28;20477;-65
2022/10/05 05:43:05;;;;;;;3.42;2.75;;;;;;;;;;5033556;28;20145;-65
2022/10/05 05:45:40;;;;;;;3.28;2.67;;;;;;;;;;5029140;28;20052;-70
2022/10/05 05:48:17;;;;;;;2.70;2.50;;;;;;;;;;5025582;28;20037;-70
2022/10/05 05:51:31;;;;;;;4.00;2.70;;;;;;;;;;5027460;28;20048;-65
2022/10/05 05:54:23;;;;;;;6.25;2.50;;;;;;;;;;5029781;28;20448;-66
2022/10/05 05:56:54;;;;;;;3.50;2.80;;;;;;;;;;5032219;28;20029;-68
2022/10/05 05:59:27;;;;;;;3.70;2.47;;;;;;;;;;5031027;28;20417;-69
2022/10/05 06:02:03;;;;;;;4.25;2.75;;;;;;;;;;5029646;28;20079;-68
2022/10/05 06:04:37;;;;;;;3.88;2.90;;;;;;;;;;5030415;28;20048;-68
2022/10/05 06:07:04;;;;;;;3.33;2.53;;;;;;;;;;5054425;28;20084;-68
2022/10/05 06:09:42;;;;;;;4.18;2.70;;;;;;;;;;5030580;28;20104;-70
2022/10/05 06:12:10;;;;;;;3.08;2.78;;;;;;;;;;5031958;28;20032;-70
2022/10/05 06:14:54;;;;;;;3.88;2.50;;;;;;;;;;5033076;28;20033;-70
2022/10/05 06:17:39;;;;;;;5.90;3.30;;;;;;;;;;5033220;28;20039;-69
2022/10/05 06:20:15;;;;;;;3.45;2.30;;;;;;;;;;5032897;28;20029;-68
2022/10/05 06:22:44;;;;;;;2.53;2.33;;;;;;;;;;5032862;28;20068;-67
2022/10/05 06:25:38;;;;;;;3.35;2.53;;;;;;;;;;5032759;28;20041;-67
2022/10/05 06:28:12;;;;;;;6.07;2.63;;;;;;;;;;5032992;28;20044;-67
2022/10/05 06:30:59;;;;;;;3.42;2.60;;;;;;;;;;5031417;28;20028;-67
2022/10/05 06:33:35;;;;;;;6.05;2.30;;;;;;;;;;5032868;28;20028;-67
2022/10/05 06:36:16;;;;;;;3.95;2.63;;;;;;;;;;5031048;28;20108;-69
2022/10/05 06:38:54;;;;;;;3.17;2.53;;;;;;;;;;5024215;28;20029;-66
2022/10/05 06:41:30;;;;;;;4.05;2.38;;;;;;;;;;5026390;28;20038;-66
2022/10/05 06:44:36;;;;;;;3.88;2.45;;;;;;;;;;5025428;28;20037;-65
2022/10/05 06:47:27;;;;;;;2.67;2.47;;;;;;;;;;5021685;28;20456;-69
2022/10/05 06:50:08;;;;;;;2.80;2.50;;;;;;;;;;5029820;28;20036;-65
2022/10/05 06:53:07;;;;;;;2.88;2.40;;;;;;;;;;5032424;28;20458;-68
2022/10/05 06:55:45;;;;;;;3.20;2.90;;;;;;;;;;5029520;28;20112;-69
2022/10/05 06:58:41;;;;;;;2.70;2.40;;;;;;;;;;5028051;28;20026;-70
2022/10/05 07:01:17;;;;;;;4.15;2.33;;;;;;;;;;5024566;28;20052;-70
2022/10/05 07:03:51;;;;;;;2.53;2.22;;;;;;;;;;5026112;28;20117;-67
2022/10/05 07:06:39;;;;;;;4.63;2.20;;;;;;;;;;5032107;28;20029;-69
2022/10/05 07:09:22;;;;;;;3.17;2.38;;;;;;;;;;5031476;28;20041;-70
2022/10/05 07:12:18;;;;;;;3.90;2.47;;;;;;;;;;5028438;28;20425;-66
2022/10/05 07:14:55;;;;;;;3.35;2.38;;;;;;;;;;5031895;28;20038;-69
2022/10/05 07:17:29;;;;;;;3.92;2.50;;;;;;;;;;5032213;28;20108;-67
2022/10/05 07:20:22;;;;;;;2.20;2.00;;;;;;;;;;5031907;28;20033;-69
2022/10/05 07:23:01;;;;;;;4.22;2.40;;;;;;;;;;5030150;28;20478;-64
2022/10/05 07:25:32;;;;;;;3.30;2.37;;;;;;;;;;5031660;28;20385;-67
2022/10/05 07:28:17;;;;;;;2.92;2.20;;;;;;;;;;5030877;28;20029;-71
2022/10/05 07:31:18;;;;;;;3.10;2.35;;;;;;;;;;5020304;28;20483;-73
2022/10/05 07:33:58;;;;;;;3.00;2.30;;;;;;;;;;5026366;28;20072;-72
2022/10/05 07:39:36;;;;;;;3.90;2.57;;;;;;;;;;5031910;28;20163;-70
2022/10/05 07:42:17;;;;;;;3.53;2.70;;;;;;;;;;5031007;28;20132;-67
2022/10/05 07:44:52;;;;;;;3.65;2.33;;;;;;;;;;5030277;28;20087;-65
2022/10/05 07:47:29;;;;;;;4.25;2.53;;;;;;;;;;5018668;28;20105;-69
2022/10/05 07:50:03;;;;;;;4.35;2.60;;;;;;;;;;5010837;28;20034;-67
2022/10/05 07:52:41;;;;;;;5.78;2.80;;;;;;;;;;5010624;28;20022;-68
2022/10/05 07:55:18;;;;;;;2.95;2.28;;;;;;;;;;5009070;28;20081;-70
2022/10/05 07:58:18;;;;;;;3.05;2.50;;;;;;;;;;5010535;28;20386;-71
2022/10/05 08:01:10;;;;;;;4.10;2.30;;;;;;;;;;5010374;28;20026;-71
2022/10/05 08:03:39;;;;;;;2.60;2.20;;;;;;;;;;5010176;28;20038;-67
2022/10/05 08:06:08;;;;;;;3.08;2.63;;;;;;;;;;5010406;28;20030;-66
2022/10/05 08:08:56;;;;;;;2.78;2.55;;;;;;;;;;5009370;28;20382;-70
2022/10/05 08:11:45;;;;;;;3.28;2.20;;;;;;;;;;5010620;28;20026;-66
2022/10/05 08:14:38;;;;;;;3.03;2.30;;;;;;;;;;5010547;28;20061;-70
2022/10/05 08:17:19;;;;;;;3.35;2.40;;;;;;;;;;5011949;28;20056;-71
2022/10/05 08:19:51;;;;;;;2.83;2.53;;;;;;;;;;5012020;28;20026;-66
2022/10/05 08:22:28;;;;;;;2.30;2.10;;;;;;;;;;5014746;28;20101;-70
2022/10/05 08:24:58;;;;;;;3.70;2.60;;;;;;;;;;5015419;28;20038;-70
2022/10/05 08:27:47;;;;;;;;;;;;;;;;;;5015960;28;20033;-71
2022/10/05 08:30:15;;;;;;;2.58;2.08;;;;;;;;;;5015499;28;19917;-68
2022/10/05 08:32:46;;;;;;;2.33;2.08;;;;;;;;;;5015392;28;20041;-66
2022/10/05 08:35:35;;;;;;;2.45;2.25;;;;;;;;;;5014982;28;20108;-70
2022/10/05 08:38:15;;;;;;;2.72;2.30;;;;;;;;;;5018366;28;20058;-71
2022/10/05 08:41:02;;;;;;;2.90;2.25;;;;;;;;;;5023700;28;20105;-67
2022/10/05 08:44:05;;;;;;;2.30;2.10;;;;;;;;;;5013216;28;20056;-66
2022/10/05 08:46:52;;;;;;;2.40;2.20;;;;;;;;;;5025058;28;20038;-72
2022/10/05 08:49:59;;;;;;;2.50;2.30;;;;;;;;;;5013441;28;20034;-72
2022/10/05 08:52:29;;;;;;;2.25;2.10;;;;;;;;;;5012824;28;20093;-68
2022/10/05 08:55:09;;;;;;;3.08;2.30;;;;;;;;;;5024913;28;20029;-71
2022/10/05 08:57:40;;;;;;;;;;;;;;;;;;5013559;28;20025;-72
2022/10/05 09:00:09;;;;;;;2.20;2.00;;;;;;;;;;5012906;28;19926;-72
2022/10/05 09:02:49;;;;;;;3.25;2.13;;;;;;;;;;5013003;28;20105;-71
2022/10/05 09:05:24;;;;;;;;;;;;;;;;;;5013155;28;20056;-72
2022/10/05 09:08:20;;;;;;;2.50;2.28;;;;;;;;;;5011665;28;20278;-71
2022/10/05 09:11:15;;;;;;;3.25;2.40;;;;;;;;;;5013069;28;20053;-72
2022/10/05 09:14:02;;;;;;;4.60;2.40;;;;;;;;;;5008141;28;20433;-72
2022/10/05 09:16:52;;;;;;;2.17;1.98;;;;;;;;;;5011209;28;20359;-69
2022/10/05 09:19:23;;;;;;;3.78;2.40;;;;;;;;;;5028787;28;20029;-69
2022/10/05 09:22:01;;;;;;;2.40;2.20;;;;;;;;;;5031804;28;20083;-69
2022/10/05 09:24:39;;;;;;;3.75;2.25;;;;;;;;;;5032376;28;20148;-71
2022/10/05 09:27:14;;;;;;;2.30;2.10;;;;;;;;;;5032173;28;20057;-71
2022/10/05 09:30:14;;;;;;;2.58;2.13;;;;;;;;;;5032222;28;20018;-71
2022/10/05 09:33:06;;;;;;;2.17;2.03;;;;;;;;;;5030404;28;20037;-71
2022/10/05 09:35:49;;;;;;;3.75;2.30;;;;;;;;;;5032175;28;20025;-71
2022/10/05 09:38:27;;;;;;;2.25;2.03;;;;;;;;;;5032125;28;20065;-73
2022/10/05 09:41:14;;;;;;;3.88;2.33;;;;;;;;;;5032172;28;20026;-71
2022/10/05 09:44:04;;;;;;;3.08;2.20;;;;;;;;;;5032058;28;20040;-71
2022/10/05 09:47:13;;;;;;;4.22;2.00;;;;;;;;;;5040073;28;20405;-69
2022/10/05 09:50:04;;;;;;;2.35;2.10;;;;;;;;;;4989997;28;20026;-67
2022/10/05 09:52:48;;;;;;;2.33;2.10;;;;;;;;;;4990337;28;20046;-70
2022/10/05 09:55:24;;;;;;;2.80;2.20;;;;;;;;;;5008494;28;20425;-76
2022/10/05 09:58:01;;;;;;;3.42;1.98;;;;;;;;;;5013181;28;20494;-77
2022/10/05 10:00:39;;;;;;;3.17;2.22;;;;;;;;;;5012626;28;20030;-74
2022/10/05 10:03:24;;;;;;;2.30;2.10;;;;;;;;;;5012282;28;20056;-76
2022/10/05 10:06:21;;;;;;;2.28;2.08;;;;;;;;;;5011789;28;20030;-69
2022/10/05 10:09:13;;;;;;;2.45;2.10;;;;;;;;;;5017605;28;20037;-77
2022/10/05 10:12:09;;;;;;;2.95;2.50;;;;;;;;;;5040241;28;20497;-75
2022/10/05 10:14:52;;;;;;;3.22;2.30;;;;;;;;;;5017144;28;20049;-77
2022/10/05 10:17:36;;;;;;;2.50;2.10;;;;;;;;;;5014706;28;20033;-73
2022/10/05 10:20:12;;;;;;;3.13;2.00;;;;;;;;;;5034889;28;20568;-72
2022/10/05 10:22:43;;;;;;;2.63;2.10;;;;;;;;;;5051215;28;20063;-73
2022/10/05 10:25:52;;;;;;;2.35;2.00;;;;;;;;;;5051195;28;20489;-74
2022/10/05 10:28:39;;;;;;;2.00;1.90;;;;;;;;;;5040413;28;20041;-71
2022/10/05 10:31:05;;;;;;;2.75;2.20;;;;;;;;;;5051156;28;20296;-72
2022/10/05 10:33:48;;;;;;;3.65;2.20;;;;;;;;;;5034108;28;20025;-70
2022/10/05 10:36:32;;;;;;;2.03;1.90;;;;;;;;;;5027229;28;20058;-69
2022/10/05 10:39:00;;;;;;;2.22;2.03;;;;;;;;;;5030953;28;20029;-68
2022/10/05 10:41:45;;;;;;;2.80;2.13;;;;;;;;;;5030776;28;20036;-71
2022/10/05 10:44:34;;;;;;;2.83;2.08;;;;;;;;;;5010429;28;20386;-70
2022/10/05 10:47:20;;;;;;;2.45;2.00;;;;;;;;;;5011282;28;20021;-68
2022/10/05 10:50:04;;;;;;;2.92;1.95;;;;;;;;;;5013010;28;20033;-69
2022/10/05 10:52:41;;;;;;;3.15;2.30;;;;;;;;;;5011453;28;20025;-69
2022/10/05 10:55:10;;;;;;;2.40;2.10;;;;;;;;;;5008157;28;20557;-69
2022/10/05 10:58:06;;;;;;;2.20;1.80;;;;;;;;;;5010352;28;20116;-69
2022/10/05 11:00:44;;;;;;;2.17;1.98;;;;;;;;;;5010386;28;20085;-68
2022/10/05 11:03:12;;;;;;;2.30;1.98;;;;;;;;;;5009705;28;20180;-69
2022/10/05 11:05:59;;;;;;;4.75;2.50;;;;;;;;;;5009326;28;20037;-69
2022/10/05 11:08:46;;;;;;;2.53;2.20;;;;;;;;;;5010856;28;20026;-68
2022/10/05 11:11:49;;;;;;;2.78;2.00;;;;;;;;;;5009548;28;20034;-68
2022/10/05 11:14:45;;;;;;;3.17;2.13;;;;;;;;;;5011579;28;20053;-69
2022/10/05 11:17:30;;;;;;;3.50;2.20;;;;;;;;;;5009499;28;20120;-68
2022/10/05 11:20:14;;;;;;;2.20;2.00;;;;;;;;;;5011629;28;20033;-71
2022/10/05 11:22:58;;;;;;;4.03;2.00;;;;;;;;;;5039070;28;20683;-72
2022/10/05 11:25:30;;;;;;;2.33;1.98;;;;;;;;;;5040380;28;20329;-70
2022/10/05 11:28:13;;;;;;;2.03;1.88;;;;;;;;;;5033070;28;20025;-70
2022/10/05 11:31:02;;;;;;;3.15;2.15;;;;;;;;;;5024555;28;20406;-71
2022/10/05 11:34:02;;;;;;;4.03;2.40;;;;;;;;;;5033158;28;20018;-72
2022/10/05 11:36:45;;;;;;;4.47;2.20;;;;;;;;;;5037216;28;20022;-70
2022/10/05 11:39:29;;;;;;;2.97;1.90;;;;;;;;;;5033319;28;20036;-70
2022/10/05 11:42:05;;;;;;;2.10;1.90;;;;;;;;;;5038621;28;20040;-70
2022/10/05 11:44:49;;;;;;;3.58;2.10;;;;;;;;;;5034851;28;20037;-69
2022/10/05 11:47:26;;;;;;;2.67;1.90;;;;;;;;;;5041049;28;20033;-70
2022/10/05 11:50:05;;;;;;;2.10;1.90;;;;;;;;;;5019412;28;20057;-70
2022/10/05 11:52:52;;;;;;;2.25;2.05;;;;;;;;;;5028683;28;20056;-68
2022/10/05 11:55:26;;;;;;;3.67;1.92;;;;;;;;;;5030479;28;20029;-69
2022/10/05 11:58:25;;;;;;;2.75;1.92;;;;;;;;;;5034239;28;20121;-69
2022/10/05 12:01:03;;;;;;;2.00;1.83;;;;;;;;;;5028203;28;20091;-69
2022/10/05 12:03:54;;;;;;;4.00;2.40;;;;;;;;;;5034861;28;20293;-69
2022/10/05 12:06:23;;;;;;;2.10;1.90;;;;;;;;;;5043587;28;20040;-68
2022/10/05 12:09:03;;;;;;;2.90;2.13;;;;;;;;;;5038515;28;20033;-67
2022/10/05 12:11:43;;;;;;;3.38;2.05;;;;;;;;;;5033842;28;20025;-69
2022/10/05 12:14:32;;;;;;;3.20;1.80;;;;;;;;;;5031345;28;20104;-69
2022/10/05 12:17:13;;;;;;;2.97;2.05;;;;;;;;;;5039502;28;20064;-69
2022/10/05 12:19:47;;;;;;;2.20;2.00;;;;;;;;;;5039061;28;20036;-68
2022/10/05 12:22:16;;;;;;;3.15;2.35;;;;;;;;;;5061974;28;20061;-67
2022/10/05 12:25:12;;;;;;;4.22;2.20;;;;;;;;;;5035201;28;20044;-70
2022/10/05 12:27:42;;;;;;;2.72;2.08;;;;;;;;;;5052796;28;20056;-68
2022/10/05 12:30:10;;;;;;;2.10;1.90;;;;;;;;;;5052990;28;20036;-68
2022/10/05 12:32:48;;;;;;;2.08;1.90;;;;;;;;;;5052560;28;20029;-68
2022/10/05 12:35:53;;;;;;;1.90;1.80;;;;;;;;;;5052210;28;20104;-67
2022/10/05 12:38:36;;;;;;;3.00;2.03;;;;;;;;;;5050995;28;20029;-68
2022/10/05 12:41:14;;;;;;;2.60;1.98;;;;;;;;;;5052563;28;20056;-68
2022/10/05 12:44:01;;;;;;;2.63;2.03;;;;;;;;;;5051002;28;20045;-69
2022/10/05 12:47:14;;;;;;;2.38;2.10;;;;;;;;;;5052142;28;20138;-70
2022/10/05 12:49:42;;;;;;;3.38;1.90;;;;;;;;;;5021877;28;20068;-70
2022/10/05 12:52:27;;;;;;;3.30;1.90;;;;;;;;;;5032090;28;20029;-69
2022/10/05 12:54:55;;;;;;;2.05;1.88;;;;;;;;;;5032695;28;20037;-69
2022/10/05 12:57:38;;;;;;;3.67;2.00;;;;;;;;;;5020339;28;20026;-71
2022/10/05 13:00:14;;;;;;;3.30;2.10;;;;;;;;;;5012542;28;20808;-70
2022/10/05 13:02:49;;;;;;;2.15;1.95;;;;;;;;;;5028179;28;20108;-67
2022/10/05 13:05:27;;;;;;;2.10;1.85;;;;;;;;;;5039577;28;20043;-70
2022/10/05 13:08:07;;;;;;;2.30;1.90;;;;;;;;;;5041454;28;20048;-68
2022/10/05 13:10:36;;;;;;;2.50;2.10;;;;;;;;;;5043177;28;20035;-71
2022/10/05 13:13:21;;;;;;;4.18;2.28;;;;;;;;;;5039549;28;20048;-68
2022/10/05 13:15:58;;;;;;;3.28;1.88;;;;;;;;;;5039022;28;20030;-70
2022/10/05 13:18:54;;;;;;;3.75;1.90;;;;;;;;;;5037707;28;20508;-69
2022/10/05 13:21:29;;;;;;;2.70;2.30;;;;;;;;;;5045072;28;20106;-69
2022/10/05 13:24:02;;;;;;;2.60;1.95;;;;;;;;;;5035785;28;20787;-70
2022/10/05 13:26:34;;;;;;;2.22;2.03;;;;;;;;;;5025357;28;20032;-69
2022/10/05 13:29:25;;;;;;;2.00;1.80;;;;;;;;;;5031047;28;20458;-68
2022/10/05 13:31:55;;;;;;;3.38;1.80;;;;;;;;;;5032537;28;20030;-68
2022/10/05 13:34:42;;;;;;;3.50;2.08;;;;;;;;;;5032005;28;20025;-68
2022/10/05 13:37:37;;;;;;;2.30;1.80;;;;;;;;;;5031234;28;20548;-69
2022/10/05 13:40:19;;;;;;;3.40;2.00;;;;;;;;;;5033178;28;20152;-71
2022/10/05 13:43:21;;;;;;;3.08;1.95;;;;;;;;;;5025511;28;20041;-70
2022/10/05 13:46:25;;;;;;;2.40;2.17;;;;;;;;;;5011411;28;20033;-69
2022/10/05 13:49:12;;;;;;;2.75;1.95;;;;;;;;;;5010069;28;20030;-70
2022/10/05 13:51:38;;;;;;;3.88;1.92;;;;;;;;;;5031299;28;20034;-71
2022/10/05 13:54:19;;;;;;;2.13;1.85;;;;;;;;;;5040359;28;20516;-71
2022/10/05 13:56:50;;;;;;;2.20;1.98;;;;;;;;;;5045565;28;20064;-66
2022/10/05 13:59:38;;;;;;;3.13;1.95;;;;;;;;;;5048554;28;20029;-67
2022/10/05 14:02:11;;;;;;;3.72;1.88;;;;;;;;;;5036297;28;20028;-67
2022/10/05 14:05:19;;;;;;;2.47;2.08;;;;;;;;;;5039535;28;20067;-67
2022/10/05 14:07:51;;;;;;;2.40;2.00;;;;;;;;;;5006116;28;20053;-68
2022/10/05 14:10:40;;;;;;;2.20;1.80;;;;;;;;;;5033671;28;20046;-65
2022/10/05 14:13:32;;;;;;;3.08;2.05;;;;;;;;;;5035081;28;20094;-68
2022/10/05 14:16:06;;;;;;;2.50;1.83;;;;;;;;;;5036833;28;20945;-69
2022/10/05 14:18:36;;;;;;;2.05;1.80;;;;;;;;;;5036459;28;20064;-67
2022/10/05 14:21:07;;;;;;;3.42;2.20;;;;;;;;;;5032398;28;20045;-68
2022/10/05 14:23:33;;;;;;;3.92;2.20;;;;;;;;;;5045258;28;20048;-69
2022/10/05 14:25:59;;;;;;;4.30;2.30;;;;;;;;;;5050238;28;20369;-67
2022/10/05 14:28:27;;;;;;;2.40;1.92;;;;;;;;;;5048069;28;20041;-71
2022/10/05 14:31:10;;;;;;;3.15;2.20;;;;;;;;;;5041536;28;20029;-69
2022/10/05 14:33:37;;;;;;;2.30;2.00;;;;;;;;;;5040158;28;20036;-66
2022/10/05 14:36:05;;;;;;;2.67;2.00;;;;;;;;;;5039083;28;20064;-69
2022/10/05 14:38:56;;;;;;;2.53;1.90;;;;;;;;;;5035394;28;20416;-69
2022/10/05 14:41:26;;;;;;;3.88;1.98;;;;;;;;;;5035446;28;20024;-71
2022/10/05 14:44:17;;;;;;;;;;;;;;;;;;5036832;28;20036;-68
2022/10/05 14:46:53;;;;;;;4.35;2.38;;;;;;;;;;5028918;28;20487;-68
2022/10/05 14:49:23;;;;;;;4.97;1.98;;;;;;;;;;5037260;28;20029;-66
2022/10/05 14:51:50;;;;;;;2.10;1.90;;;;;;;;;;5038645;28;20393;-64
2022/10/05 14:54:54;;;;;;;2.10;1.83;;;;;;;;;;5040470;28;20606;-71
2022/10/05 14:58:01;;;;;;;3.88;2.03;;;;;;;;;;5023960;28;20041;-67
2022/10/05 15:00:31;;;;;;;2.70;1.92;;;;;;;;;;5059632;28;20501;-71
2022/10/05 15:03:25;;;;;;;2.92;1.90;;;;;;;;;;5036630;28;20626;-68
2022/10/05 15:06:00;;;;;;;3.15;2.17;;;;;;;;;;5040100;28;20039;-68
2022/10/05 15:08:59;;;;;;;1.88;1.77;;;;;;;;;;5039985;28;20056;-69
2022/10/05 15:11:41;;;;;;;2.47;2.27;;;;;;;;;;5025520;28;20377;-68
2022/10/05 15:14:16;;;;;;;3.78;2.08;;;;;;;;;;5036383;28;20175;-72
2022/10/05 15:16:41;;;;;;;2.63;2.10;;;;;;;;;;5038331;28;20028;-67
2022/10/05 15:19:23;;;;;;;3.28;2.10;;;;;;;;;;5040095;28;20103;-67
2022/10/05 15:21:59;;;;;;;2.50;2.30;;;;;;;;;;5036909;28;20026;-73
2022/10/05 15:24:35;;;;;;;3.00;2.30;;;;;;;;;;5038736;28;20013;-72
2022/10/05 15:27:03;;;;;;;2.35;2.15;;;;;;;;;;5034919;28;20493;-69
2022/10/05 15:29:37;;;;;;;3.47;2.35;;;;;;;;;;5028237;28;20056;-67
2022/10/05 15:32:30;;;;;;;3.75;2.10;;;;;;;;;;5020819;28;20046;-70
2022/10/05 15:35:29;;;;;;;3.17;2.40;;;;;;;;;;5030178;28;20034;-72
2022/10/05 15:38:23;;;;;;;2.58;2.35;;;;;;;;;;5031426;28;20033;-68
2022/10/05 15:41:07;;;;;;;2.80;2.38;;;;;;;;;;5031275;28;20030;-70
2022/10/05 15:43:51;;;;;;;2.70;2.20;;;;;;;;;;5035544;28;20073;-69
2022/10/05 15:46:27;;;;;;;4.82;2.10;;;;;;;;;;5031508;28;20030;-70
2022/10/05 15:49:08;;;;;;;2.55;2.35;;;;;;;;;;5038918;28;20388;-66
2022/10/05 15:51:34;;;;;;;2.75;2.40;;;;;;;;;;5031844;28;20037;-69
2022/10/05 15:57:29;;;;;;;3.50;2.28;;;;;;;;;;5035154;28;20087;-70
2022/10/05 16:00:10;;;;;;;3.45;2.47;;;;;;;;;;5053808;28;20033;-66
2022/10/05 16:02:39;;;;;;;3.58;2.40;;;;;;;;;;5033859;28;20041;-70
2022/10/05 16:05:18;;;;;;;3.15;2.30;;;;;;;;;;5033977;28;20037;-67
2022/10/05 16:10:42;;;;;;;2.83;2.35;;;;;;;;;;5035280;28;20269;-66
2022/10/05 16:13:24;;;;;;;2.20;2.00;;;;;;;;;;5036317;28;20024;-65